Time;durP1;ratioP1;P1;durP2;ratioP2;P2;SDS_P1;SDS_P2;PMS_P1;PMS_P2;Temp;Humidity;BMP_temperature;BMP_pressure;BME280_temperature;BME280_humidity;BME280_pressure;Samples;Min_cycle;Max_cycle;Signal;HPM_P1;HPM_P2
2022/09/17 00:01:36;;;;;;;10.57;2.40;;;11.70;99.90;;;;;;6109176;23;20009;-84
2022/09/17 00:04:03;;;;;;;7.80;1.77;;;11.70;99.90;;;;;;6110568;23;20009;-83
2022/09/17 00:06:30;;;;;;;10.20;2.28;;;11.60;99.90;;;;;;6108184;23;20081;-82
2022/09/17 00:09:15;;;;;;;9.32;2.00;;;11.40;99.90;;;;;;6085075;23;20021;-85
2022/09/17 00:12:13;;;;;;;22.35;2.72;;;10.80;99.90;;;;;;6107821;23;20018;-84
2022/09/17 00:15:34;;;;;;;;;;;;;;;;;;;;;
2022/09/17 00:18:51;;;;;;;18.70;2.20;;;11.50;99.90;;;;;;6129663;23;20065;-83
2022/09/17 00:25:02;;;;;;;9.68;2.00;;;10.90;99.90;;;;;;6091036;23;20030;-87
2022/09/17 00:28:14;;;;;;;14.88;2.40;;;11.70;99.90;;;;;;6084071;23;20060;-84
2022/09/17 00:41:29;;;;;;;10.02;2.08;;;11.10;99.90;;;;;;6049119;23;20111;-84
2022/09/17 00:43:59;;;;;;;10.32;2.25;;;10.50;99.90;;;;;;6025577;23;20011;-84
2022/09/17 00:46:43;;;;;;;11.27;2.08;;;11.40;99.90;;;;;;6025397;23;20019;-84
2022/09/17 00:49:33;;;;;;;14.35;2.28;;;10.40;99.90;;;;;;6025285;23;20041;-84
2022/09/17 00:52:30;;;;;;;12.23;2.35;;;11.10;99.90;;;;;;6002550;23;20312;-85
2022/09/17 00:55:38;;;;;;;8.38;1.63;;;11.30;99.90;;;;;;6023372;23;20205;-83
2022/09/17 00:58:07;;;;;;;15.50;1.90;;;11.40;99.90;;;;;;6020682;23;20011;-85
2022/09/17 01:00:41;;;;;;;8.02;2.60;;;11.10;99.90;;;;;;6024791;23;20043;-82
2022/09/17 01:07:37;;;;;;;14.80;2.83;;;11.50;99.90;;;;;;6048428;23;20043;-85
2022/09/17 01:14:12;;;;;;;11.35;2.58;;;11.60;99.90;;;;;;5987190;23;20019;-88
2022/09/17 01:17:18;;;;;;;14.35;2.65;;;11.50;99.90;;;;;;6051618;23;20014;-85
2022/09/17 01:27:16;;;;;;;;;;;;;;;;;;;;;
2022/09/17 01:33:11;;;;;;;18.98;3.00;;;11.30;99.90;;;;;;6134367;23;20041;-81
2022/09/17 01:36:13;;;;;;;12.93;2.80;;;11.40;99.90;;;;;;6109676;23;20194;-82
2022/09/17 01:39:01;;;;;;;16.15;2.88;;;11.40;99.90;;;;;;6134556;23;20057;-84
2022/09/17 01:41:39;;;;;;;18.35;2.70;;;11.60;99.90;;;;;;6067200;23;20017;-84
2022/09/17 01:44:34;;;;;;;10.88;2.30;;;11.50;99.90;;;;;;6110096;23;20017;-81
2022/09/17 01:47:13;;;;;;;12.55;2.72;;;11.50;99.90;;;;;;6109443;23;20006;-81
2022/09/17 01:49:39;;;;;;;11.85;2.30;;;11.70;99.90;;;;;;6109507;23;20022;-82
2022/09/17 01:52:10;;;;;;;13.57;2.22;;;11.70;99.90;;;;;;6110046;23;20037;-81
2022/09/17 01:54:43;;;;;;;15.50;2.47;;;11.50;99.90;;;;;;6134052;23;20013;-82
2022/09/17 01:57:17;;;;;;;16.17;3.17;;;11.60;99.90;;;;;;6109385;23;20021;-80
2022/09/17 02:00:18;;;;;;;14.85;2.40;;;11.60;99.90;;;;;;6111164;23;20296;-82
2022/09/17 02:03:01;;;;;;;17.08;3.13;;;11.60;99.90;;;;;;6107997;23;20025;-82
2022/09/17 02:05:36;;;;;;;14.82;2.70;;;11.50;99.90;;;;;;6108985;23;20014;-84
2022/09/17 02:08:26;;;;;;;14.32;2.88;;;11.60;99.90;;;;;;6109540;23;20029;-83
2022/09/17 02:11:16;;;;;;;14.55;2.90;;;11.50;99.90;;;;;;6133187;23;20010;-84
2022/09/17 02:14:10;;;;;;;13.60;2.33;;;11.50;99.90;;;;;;6109692;23;20016;-86
2022/09/17 02:21:03;;;;;;;10.10;2.28;;;10.80;99.90;;;;;;6134316;23;20017;-83
2022/09/17 02:23:40;;;;;;;11.00;2.17;;;10.30;99.90;;;;;;6101203;23;20192;-84
2022/09/17 02:26:11;;;;;;;7.75;1.80;;;11.00;99.90;;;;;;6109254;23;20010;-82
2022/09/17 02:28:46;;;;;;;14.85;2.45;;;10.90;99.90;;;;;;6109276;23;20041;-86
2022/09/17 02:32:13;;;;;;;;;;;;;;;;;;;;;
2022/09/17 02:34:42;;;;;;;15.68;3.53;;;10.90;99.90;;;;;;6099983;23;20441;-81
2022/09/17 02:37:08;;;;;;;10.48;1.90;;;11.00;99.90;;;;;;6134070;23;20026;-82
2022/09/17 02:39:34;;;;;;;7.95;2.05;;;11.30;99.90;;;;;;6085531;23;20169;-82
2022/09/17 02:42:22;;;;;;;13.75;2.28;;;11.00;99.90;;;;;;6109199;23;20026;-82
2022/09/17 02:45:06;;;;;;;10.05;1.85;;;11.10;99.90;;;;;;6108426;23;20010;-82
2022/09/17 02:48:20;;;;;;;9.30;2.05;;;10.90;99.90;;;;;;6111212;23;20040;-81
2022/09/17 02:51:09;;;;;;;10.38;2.30;;;10.10;99.90;;;;;;6107783;23;20042;-81
2022/09/17 02:53:58;;;;;;;11.43;1.85;;;10.80;99.90;;;;;;6133542;23;20262;-83
2022/09/17 02:56:50;;;;;;;17.63;4.13;;;11.00;99.90;;;;;;6133305;23;20244;-82
2022/09/17 02:59:42;;;;;;;14.40;2.47;;;11.10;99.90;;;;;;6133160;23;20029;-81
2022/09/17 03:02:16;;;;;;;13.93;2.50;;;11.10;99.90;;;;;;6132867;23;20201;-83
2022/09/17 03:04:46;;;;;;;13.90;2.38;;;11.10;99.90;;;;;;6134501;23;20177;-84
2022/09/17 03:07:59;;;;;;;13.55;2.20;;;11.20;99.90;;;;;;6109073;23;20332;-81
2022/09/17 03:10:32;;;;;;;11.45;2.50;;;12.30;99.90;;;;;;6132715;23;20010;-86
2022/09/17 03:13:18;;;;;;;12.27;2.75;;;11.10;99.90;;;;;;6108818;23;20037;-86
2022/09/17 03:15:58;;;;;;;10.02;1.90;;;11.00;99.90;;;;;;6133032;23;20114;-87
2022/09/17 03:18:36;;;;;;;12.18;2.35;;;10.70;99.90;;;;;;6085005;23;20044;-84
2022/09/17 03:21:11;;;;;;;14.95;2.53;;;10.90;99.90;;;;;;6108118;23;20339;-86
2022/09/17 03:23:46;;;;;;;9.60;1.80;;;10.80;99.90;;;;;;6109272;23;20033;-85
2022/09/17 03:26:52;;;;;;;;;;;;;;;;;;;;;
2022/09/17 03:29:36;;;;;;;11.30;1.58;;;9.60;99.90;;;;;;6133045;23;20021;-85
2022/09/17 03:32:05;;;;;;;15.18;1.73;;;10.50;99.90;;;;;;6108758;23;20018;-85
2022/09/17 03:34:31;;;;;;;13.45;2.38;;;10.40;99.90;;;;;;6108563;23;20295;-84
2022/09/17 03:37:06;;;;;;;11.93;2.45;;;9.40;99.90;;;;;;6084023;23;20030;-86
2022/09/17 03:39:32;;;;;;;11.35;1.73;;;10.50;99.90;;;;;;6133298;23;20021;-85
2022/09/17 03:42:10;;;;;;;;;;;;;;;;;;;;;
2022/09/17 03:44:36;;;;;;;8.88;1.90;;;10.30;99.90;;;;;;6112016;23;20056;-84
2022/09/17 03:47:09;;;;;;;12.85;2.33;;;10.30;99.90;;;;;;6108884;23;20061;-84
2022/09/17 03:49:43;;;;;;;10.35;2.00;;;10.40;99.90;;;;;;6108829;23;20017;-86
2022/09/17 03:52:14;;;;;;;;;;;10.40;99.90;;;;;;6133689;23;20021;-85
2022/09/17 03:55:24;;;;;;;9.88;1.35;;;11.00;99.90;;;;;;6103073;23;19964;-85
2022/09/17 03:58:01;;;;;;;10.55;2.00;;;10.60;99.90;;;;;;6090362;23;20176;-85
2022/09/17 04:04:08;;;;;;;13.70;2.03;;;10.60;99.90;;;;;;6109007;23;20073;-87
2022/09/17 04:06:56;;;;;;;17.25;2.13;;;10.60;99.90;;;;;;6113494;23;20014;-84
2022/09/17 04:09:40;;;;;;;9.30;2.42;;;10.80;99.90;;;;;;6093198;23;20061;-85
2022/09/17 04:12:06;;;;;;;10.07;1.87;;;10.80;99.90;;;;;;6108566;23;20014;-84
2022/09/17 04:15:00;;;;;;;13.15;2.53;;;9.60;99.90;;;;;;6083984;23;20228;-84
2022/09/17 04:17:35;;;;;;;17.00;2.45;;;10.90;99.90;;;;;;6107220;23;20021;-85
2022/09/17 04:20:05;;;;;;;9.88;1.80;;;10.80;99.90;;;;;;6107872;23;20006;-84
2022/09/17 04:22:43;;;;;;;11.32;2.42;;;10.70;99.90;;;;;;6131969;23;20173;-82
2022/09/17 04:25:11;;;;;;;10.75;1.83;;;10.70;99.90;;;;;;6132441;23;20018;-84
2022/09/17 04:27:37;;;;;;;8.65;2.22;;;10.60;99.90;;;;;;6084653;23;20010;-84
2022/09/17 04:30:04;;;;;;;8.68;1.55;;;10.50;99.90;;;;;;6108379;23;20016;-83
2022/09/17 04:32:33;;;;;;;10.15;1.40;;;10.50;99.90;;;;;;6108507;23;20014;-82
2022/09/17 04:34:58;;;;;;;10.30;3.58;;;10.50;99.90;;;;;;6131578;23;20199;-84
2022/09/17 04:37:24;;;;;;;15.10;1.90;;;10.40;99.90;;;;;;6107624;23;20022;-82
2022/09/17 04:39:51;;;;;;;7.20;1.75;;;10.50;99.90;;;;;;6108452;23;20366;-83
2022/09/17 04:42:17;;;;;;;11.20;1.80;;;10.50;99.90;;;;;;6084855;23;20347;-84
2022/09/17 04:44:43;;;;;;;7.80;1.88;;;10.60;99.90;;;;;;6108056;23;20192;-83
2022/09/17 04:47:15;;;;;;;12.68;1.80;;;10.50;99.90;;;;;;6107431;23;20038;-83
2022/09/17 04:49:40;;;;;;;14.05;2.40;;;10.40;99.90;;;;;;6082705;23;20065;-85
2022/09/17 04:52:06;;;;;;;9.25;1.73;;;10.50;99.90;;;;;;6107506;23;20049;-81
2022/09/17 04:54:34;;;;;;;9.90;2.17;;;10.70;99.90;;;;;;6108376;23;20161;-83
2022/09/17 04:57:00;;;;;;;7.43;1.52;;;10.70;99.90;;;;;;6059647;23;20367;-82
2022/09/17 04:59:26;;;;;;;7.55;1.70;;;10.70;99.90;;;;;;6108027;23;20014;-82
2022/09/17 05:01:54;;;;;;;7.60;1.55;;;10.70;99.90;;;;;;6108638;23;20061;-83
2022/09/17 05:04:20;;;;;;;5.43;1.30;;;10.70;99.90;;;;;;6086533;23;20010;-81
2022/09/17 05:06:46;;;;;;;7.90;1.50;;;10.50;99.90;;;;;;6133725;23;20092;-82
2022/09/17 05:09:11;;;;;;;10.27;2.13;;;11.00;99.90;;;;;;6085885;23;20196;-83
2022/09/17 05:11:37;;;;;;;9.43;2.15;;;10.50;99.90;;;;;;6109698;23;20010;-83
2022/09/17 05:14:34;;;;;;;8.95;1.92;;;10.60;99.90;;;;;;6109761;23;20020;-86
2022/09/17 05:18:25;;;;;;;;;;;;;;;;;;;;;
2022/09/17 05:21:43;;;;;;;;;;;;;;;;;;;;;
2022/09/17 05:28:07;;;;;;;8.35;1.90;;;10.30;99.90;;;;;;5993848;23;20116;-83
2022/09/17 05:30:35;;;;;;;10.32;2.22;;;9.30;99.90;;;;;;5970479;23;20019;-80
2022/09/17 05:33:06;;;;;;;11.90;1.85;;;10.30;99.90;;;;;;5993542;23;20019;-82
2022/09/17 05:35:32;;;;;;;14.32;2.53;;;11.20;99.90;;;;;;6022031;23;20046;-82
2022/09/17 05:38:04;;;;;;;15.73;2.67;;;10.60;99.90;;;;;;6084778;23;20017;-85
2022/09/17 05:40:31;;;;;;;9.40;1.88;;;10.80;99.90;;;;;;6085828;23;20014;-83
2022/09/17 05:43:20;;;;;;;12.55;2.13;;;9.70;99.90;;;;;;6109158;23;20240;-84
2022/09/17 05:45:58;;;;;;;;;;;;;;;;;;;;;
2022/09/17 05:48:29;;;;;;;9.13;1.80;;;11.20;99.90;;;;;;6109143;23;20200;-82
2022/09/17 05:50:55;;;;;;;12.88;1.88;;;11.30;99.90;;;;;;6085428;23;20064;-83
2022/09/17 05:53:24;;;;;;;13.38;1.75;;;11.50;99.90;;;;;;6061560;23;20014;-86
2022/09/17 05:56:26;;;;;;;11.90;2.50;;;11.00;99.90;;;;;;6061333;23;20363;-79
2022/09/17 05:58:55;;;;;;;9.13;2.05;;;11.30;99.90;;;;;;6074490;23;20049;-81
2022/09/17 06:02:04;;;;;;;18.05;2.63;;;12.10;99.90;;;;;;6109227;23;20024;-79
2022/09/17 06:05:11;;;;;;;12.25;2.00;;;11.00;99.90;;;;;;6108663;23;20010;-78
2022/09/17 06:07:43;;;;;;;8.50;1.80;;;11.20;99.90;;;;;;6016614;23;20057;-78
2022/09/17 06:10:08;;;;;;;11.15;1.52;;;12.20;99.90;;;;;;6085128;23;20021;-81
2022/09/17 06:12:34;;;;;;;9.65;2.08;;;12.30;99.90;;;;;;6085483;23;20041;-80
2022/09/17 06:15:01;;;;;;;12.13;1.92;;;12.20;99.90;;;;;;6108230;23;20021;-82
2022/09/17 06:17:27;;;;;;;9.68;2.00;;;12.20;99.90;;;;;;6061711;23;20173;-81
2022/09/17 06:19:55;;;;;;;8.52;2.38;;;12.00;99.90;;;;;;6062541;23;20321;-82
2022/09/17 06:22:32;;;;;;;;;;;;;;;;;;;;;
2022/09/17 06:25:07;;;;;;;10.30;2.25;;;11.30;99.90;;;;;;6086593;23;20016;-81
2022/09/17 06:28:28;;;;;;;;;;;;;;;;;;;;;
2022/09/17 06:39:12;;;;;;;6.75;1.58;;;11.00;99.90;;;;;;5851758;24;20016;-79
2022/09/17 06:42:35;;;;;;;7.65;1.90;;;11.40;99.90;;;;;;5828378;24;20031;-83
2022/09/17 06:46:01;;;;;;;9.93;1.55;;;11.50;99.90;;;;;;5780987;24;20019;-85
2022/09/17 06:56:50;;;;;;;;;;;;;;;;;;;;;
2022/09/17 06:59:44;;;;;;;6.78;2.08;;;11.00;99.90;;;;;;5775188;24;20023;-77
2022/09/17 07:10:48;;;;;;;;;;;;;;;;;;;;;
2022/09/17 07:29:13;;;;;;;8.65;1.90;;;11.50;99.90;;;;;;6213500;22;1282273;-84
2022/09/17 07:31:42;;;;;;;12.10;2.40;;;11.50;99.90;;;;;;6297067;22;20094;-82
2022/09/17 07:34:11;;;;;;;9.18;1.95;;;11.40;99.90;;;;;;6271627;22;20011;-82
2022/09/17 07:36:40;;;;;;;12.10;2.17;;;11.40;99.90;;;;;;6245400;22;20011;-87
2022/09/17 07:39:21;;;;;;;9.50;1.70;;;11.80;99.90;;;;;;6246101;22;20457;-81
2022/09/17 07:41:57;;;;;;;22.98;1.95;;;11.80;99.90;;;;;;6298681;22;20019;-80
2022/09/17 07:44:23;;;;;;;7.03;1.58;;;11.90;99.90;;;;;;6270855;22;20010;-73
2022/09/17 07:46:50;;;;;;;12.88;1.95;;;11.40;99.90;;;;;;6271237;22;20297;-80
2022/09/17 07:49:15;;;;;;;10.15;1.42;;;12.30;99.90;;;;;;6271889;22;20300;-84
2022/09/17 07:51:41;;;;;;;7.60;1.58;;;12.50;99.90;;;;;;6271280;22;20110;-86
2022/09/17 07:54:29;;;;;;;7.35;1.30;;;12.80;99.90;;;;;;6246515;22;20007;-82
2022/09/17 07:57:03;;;;;;;8.40;1.50;;;13.00;99.90;;;;;;6263953;22;20241;-84
2022/09/17 08:02:33;;;;;;;8.43;1.80;;;12.20;99.90;;;;;;6253252;22;20030;-83
2022/09/17 08:05:52;;;;;;;5.85;1.23;;;12.10;99.90;;;;;;6239111;22;20437;-85
2022/09/17 08:09:09;;;;;;;8.40;1.95;;;11.00;99.90;;;;;;6225257;22;20037;-83
2022/09/17 08:15:28;;;;;;;7.75;1.45;;;12.30;99.90;;;;;;6028730;23;20023;-84
2022/09/17 08:25:44;;;;;;;;;;;;;;;;;;;;;
2022/09/17 08:32:08;;;;;;;7.10;1.38;;;12.30;99.90;;;;;;6018935;23;20060;-79
2022/09/17 08:34:36;;;;;;;9.13;2.10;;;13.20;99.90;;;;;;6021599;23;20015;-82
2022/09/17 08:37:05;;;;;;;9.88;1.67;;;13.00;99.90;;;;;;6127185;22;20020;-76
2022/09/17 08:39:30;;;;;;;7.80;1.30;;;12.80;99.90;;;;;;6235485;23;20014;-76
2022/09/17 08:42:02;;;;;;;8.45;1.20;;;13.40;99.90;;;;;;6210137;23;20032;-76
2022/09/17 08:48:42;;;;;;;8.10;1.70;;;13.50;99.90;;;;;;6181179;23;20015;-83
2022/09/17 08:55:30;;;;;;;9.55;1.75;;;13.10;99.90;;;;;;6190481;23;20032;-81
2022/09/17 08:58:57;;;;;;;10.40;1.50;;;13.60;99.90;;;;;;6165676;23;20195;-76
2022/09/17 09:05:10;;;;;;;5.90;1.13;;;12.90;99.90;;;;;;6144156;22;20063;-80
2022/09/17 09:07:42;;;;;;;5.43;1.20;;;12.40;99.90;;;;;;6262245;22;20013;-80
2022/09/17 09:10:22;;;;;;;4.90;1.45;;;12.40;99.90;;;;;;6236607;23;20083;-81
2022/09/17 09:12:50;;;;;;;6.25;1.63;;;12.30;99.90;;;;;;6237181;23;20021;-81
2022/09/17 09:15:42;;;;;;;3.55;1.00;;;12.20;99.90;;;;;;6237136;22;20009;-83
2022/09/17 09:18:24;;;;;;;4.45;1.05;;;12.30;99.90;;;;;;6258624;22;20009;-78
2022/09/17 09:21:08;;;;;;;3.72;1.00;;;12.50;99.90;;;;;;6236546;23;20098;-76
2022/09/17 09:30:24;;;;;;;4.85;1.40;;;13.00;99.90;;;;;;6209587;23;20042;-84
2022/09/17 09:33:17;;;;;;;8.25;1.30;;;13.40;99.90;;;;;;6266114;22;20202;-81
2022/09/17 09:35:43;;;;;;;5.18;1.33;;;13.60;99.90;;;;;;6266580;22;20303;-81
2022/09/17 09:38:21;;;;;;;11.35;1.77;;;13.60;99.90;;;;;;6267164;22;20009;-79
2022/09/17 09:40:59;;;;;;;4.95;1.73;;;13.50;99.90;;;;;;6267663;22;20016;-78
2022/09/17 09:43:46;;;;;;;9.25;1.23;;;13.10;99.90;;;;;;6241390;23;20073;-78
2022/09/17 09:46:37;;;;;;;4.97;1.30;;;12.70;99.90;;;;;;6242206;23;20013;-80
2022/09/17 09:49:21;;;;;;;3.28;1.10;;;12.50;99.90;;;;;;6269151;22;20013;-85
2022/09/17 09:52:16;;;;;;;5.97;1.27;;;12.10;99.90;;;;;;6268803;22;20318;-84
2022/09/17 09:55:16;;;;;;;6.68;1.38;;;11.70;99.90;;;;;;6189244;23;20256;-83
2022/09/17 09:58:28;;;;;;;5.80;1.27;;;11.40;99.90;;;;;;6266277;22;20009;-77
2022/09/17 10:00:53;;;;;;;7.82;1.83;;;11.50;99.90;;;;;;6293055;22;20006;-77
2022/09/17 10:03:47;;;;;;;4.22;1.30;;;11.90;99.90;;;;;;6266386;22;20021;-80
2022/09/17 10:06:40;;;;;;;5.45;1.60;;;12.60;99.90;;;;;;6266988;22;20048;-79
2022/09/17 10:09:08;;;;;;;6.82;1.50;;;13.00;99.90;;;;;;6244912;22;20051;-78
2022/09/17 10:11:41;;;;;;;4.85;1.58;;;13.00;99.90;;;;;;6293012;22;20076;-82
2022/09/17 10:14:28;;;;;;;5.78;0.98;;;12.40;99.90;;;;;;6267087;22;20194;-83
2022/09/17 10:17:19;;;;;;;8.57;2.13;;;12.90;99.90;;;;;;6264924;22;20054;-80
2022/09/17 10:20:12;;;;;;;6.32;1.20;;;13.40;99.90;;;;;;6266824;22;20009;-79
2022/09/17 10:23:32;;;;;;;7.70;2.33;;;14.00;99.90;;;;;;6292153;22;20236;-81
2022/09/17 10:26:01;;;;;;;8.75;1.70;;;13.90;99.90;;;;;;6287221;22;20013;-81
2022/09/17 10:28:32;;;;;;;10.43;1.90;;;12.60;99.90;;;;;;6266807;22;20047;-79
2022/09/17 10:31:05;;;;;;;8.48;1.67;;;13.50;99.90;;;;;;6266132;22;20015;-82
2022/09/17 10:33:32;;;;;;;8.88;2.03;;;13.30;99.90;;;;;;6262310;22;20072;-79
2022/09/17 10:36:06;;;;;;;11.10;2.00;;;13.90;99.90;;;;;;6263195;22;20007;-83
2022/09/17 10:38:40;;;;;;;12.07;2.42;;;13.90;99.90;;;;;;6262559;22;20197;-81
2022/09/17 10:45:01;;;;;;;9.73;2.22;;;13.60;99.90;;;;;;6164854;23;20024;-82
2022/09/17 10:48:23;;;;;;;;;;;;;;;;;;;;;
2022/09/17 10:51:01;;;;;;;9.27;1.50;;;14.10;99.90;;;;;;6166261;23;20020;-79
2022/09/17 10:58:22;;;;;;;;;;;;;;;;;;;;;
2022/09/17 11:12:42;;;;;;;9.93;2.28;;;13.90;99.90;;;;;;6215437;22;20007;-86
2022/09/17 11:15:33;;;;;;;11.52;1.83;;;15.20;99.90;;;;;;6261645;22;20019;-82
2022/09/17 11:18:20;;;;;;;5.88;1.55;;;15.00;99.90;;;;;;6263385;22;20025;-79
2022/09/17 11:21:08;;;;;;;10.13;1.67;;;15.30;99.90;;;;;;6262868;22;20301;-84
2022/09/17 11:23:52;;;;;;;9.27;1.92;;;15.40;99.90;;;;;;6263151;22;20007;-84
2022/09/17 11:26:35;;;;;;;10.60;2.13;;;15.40;99.90;;;;;;6262785;22;20022;-81
2022/09/17 11:29:23;;;;;;;6.80;2.10;;;15.60;99.90;;;;;;6264856;22;20057;-81
2022/09/17 11:31:59;;;;;;;12.20;2.45;;;15.60;99.90;;;;;;6294925;22;20026;-86
2022/09/17 11:34:33;;;;;;;6.22;2.13;;;15.10;99.90;;;;;;6318615;22;20007;-83
2022/09/17 11:37:13;;;;;;;12.30;2.42;;;15.70;99.90;;;;;;6293623;22;20019;-82
2022/09/17 11:39:41;;;;;;;8.07;1.60;;;16.10;99.90;;;;;;6293642;22;20010;-81
2022/09/17 11:42:19;;;;;;;12.23;2.60;;;16.20;99.90;;;;;;6319731;22;20011;-82
2022/09/17 11:45:11;;;;;;;12.38;2.10;;;16.20;99.90;;;;;;6293445;22;20010;-81
2022/09/17 11:47:44;;;;;;;9.30;2.15;;;15.50;99.90;;;;;;6313188;22;20067;-85
2022/09/17 11:50:21;;;;;;;7.63;2.00;;;16.20;99.90;;;;;;6293858;22;20216;-81
2022/09/17 11:53:22;;;;;;;7.53;1.85;;;14.80;99.90;;;;;;6293692;22;20011;-84
2022/09/17 11:59:48;;;;;;;8.45;2.13;;;15.70;99.90;;;;;;6346943;22;20025;-84
2022/09/17 12:03:15;;;;;;;12.52;2.35;;;16.10;99.90;;;;;;6320941;22;20018;-79
2022/09/17 12:10:07;;;;;;;10.15;3.22;;;14.00;99.90;;;;;;6160690;23;20016;-83
2022/09/17 12:16:45;;;;;;;7.18;1.58;;;14.70;99.90;;;;;;6236507;23;20039;-83
2022/09/17 12:19:28;;;;;;;8.57;1.85;;;15.30;99.90;;;;;;6213814;22;20008;-83
2022/09/17 12:22:32;;;;;;;15.13;2.38;;;15.40;99.90;;;;;;6296313;22;20010;-83
2022/09/17 12:25:02;;;;;;;8.95;2.22;;;15.70;99.90;;;;;;6294500;22;20011;-78
2022/09/17 12:27:59;;;;;;;8.60;1.95;;;15.20;99.90;;;;;;6295120;22;20010;-84
2022/09/17 12:30:36;;;;;;;8.93;2.42;;;15.00;99.90;;;;;;6294475;22;20042;-85
2022/09/17 12:33:21;;;;;;;8.38;1.42;;;14.90;99.90;;;;;;6294726;22;20050;-81
2022/09/17 12:36:05;;;;;;;;;;;14.20;99.90;;;;;;6295887;22;20007;-84
2022/09/17 12:38:51;;;;;;;2.92;0.90;;;14.20;99.90;;;;;;6294963;22;20148;-79
2022/09/17 12:41:39;;;;;;;4.82;1.33;;;14.30;99.90;;;;;;6294019;22;20061;-81
2022/09/17 12:44:34;;;;;;;5.00;1.02;;;14.50;99.90;;;;;;6295175;22;20017;-82
2022/09/17 12:47:21;;;;;;;9.75;2.20;;;14.40;99.90;;;;;;6321253;22;20022;-83
2022/09/17 12:50:05;;;;;;;10.27;1.50;;;14.00;99.90;;;;;;6320199;22;20055;-84
2022/09/17 12:52:52;;;;;;;14.02;1.98;;;14.10;99.90;;;;;;6294870;22;20019;-82
2022/09/17 12:55:45;;;;;;;8.18;1.70;;;14.10;99.90;;;;;;6293710;22;20308;-82
2022/09/17 12:58:32;;;;;;;5.63;1.40;;;14.40;99.90;;;;;;6295613;22;20066;-81
2022/09/17 13:01:35;;;;;;;4.05;1.42;;;14.60;99.90;;;;;;6346862;22;20200;-82
2022/09/17 13:04:28;;;;;;;9.55;1.73;;;14.80;99.90;;;;;;6294305;22;20163;-84
2022/09/17 13:07:21;;;;;;;8.63;1.70;;;13.90;99.90;;;;;;6294909;22;20060;-83
2022/09/17 13:10:11;;;;;;;9.38;1.65;;;15.90;99.90;;;;;;6294770;22;20244;-83
2022/09/17 13:12:55;;;;;;;7.75;2.08;;;15.10;99.90;;;;;;6293796;22;20053;-84
2022/09/17 13:15:40;;;;;;;10.30;2.13;;;15.60;99.90;;;;;;6319961;22;20326;-83
2022/09/17 13:18:24;;;;;;;10.60;1.65;;;14.90;99.90;;;;;;6292143;22;20102;-82
2022/09/17 13:21:02;;;;;;;7.90;1.92;;;14.50;99.90;;;;;;6293570;22;20059;-83
2022/09/17 13:23:40;;;;;;;9.55;1.75;;;13.60;99.90;;;;;;6294536;22;20022;-82
2022/09/17 13:26:12;;;;;;;8.85;2.17;;;14.90;99.90;;;;;;6293938;22;20018;-82
2022/09/17 13:28:44;;;;;;;8.38;1.55;;;15.30;99.90;;;;;;6319383;22;20041;-79
2022/09/17 13:31:13;;;;;;;7.07;1.60;;;15.60;99.90;;;;;;6267136;22;20015;-81
2022/09/17 13:33:51;;;;;;;8.85;1.40;;;14.50;99.90;;;;;;6263309;22;20019;-83
2022/09/17 13:36:37;;;;;;;8.55;1.65;;;15.60;99.90;;;;;;6288121;22;20193;-82
2022/09/17 13:39:05;;;;;;;9.57;2.13;;;15.60;99.90;;;;;;6288503;22;20041;-80
2022/09/17 13:41:35;;;;;;;7.43;1.63;;;15.50;99.90;;;;;;6286711;22;20047;-81
2022/09/17 13:44:04;;;;;;;4.78;1.60;;;15.80;99.90;;;;;;6262565;22;20011;-81
2022/09/17 13:46:32;;;;;;;14.32;2.58;;;15.80;99.90;;;;;;6263162;22;20410;-84
2022/09/17 13:49:14;;;;;;;11.52;1.85;;;15.80;99.90;;;;;;6240036;22;20026;-83
2022/09/17 13:51:42;;;;;;;9.68;1.90;;;16.10;99.90;;;;;;6262147;22;20015;-80
2022/09/17 13:54:10;;;;;;;11.40;2.30;;;15.90;99.90;;;;;;6263636;22;20197;-83
2022/09/17 13:56:38;;;;;;;10.07;1.70;;;15.80;99.90;;;;;;6262711;22;20007;-83
2022/09/17 13:59:19;;;;;;;9.45;1.85;;;16.00;99.90;;;;;;6263371;22;20018;-83
2022/09/17 14:01:56;;;;;;;7.40;1.90;;;15.90;99.90;;;;;;6261896;22;20015;-85
2022/09/17 14:04:40;;;;;;;5.65;1.70;;;14.90;99.90;;;;;;6287334;22;20361;-81
2022/09/17 14:07:22;;;;;;;12.23;1.60;;;15.30;99.90;;;;;;6288161;22;20062;-82
2022/09/17 14:09:57;;;;;;;8.00;1.85;;;15.30;99.90;;;;;;6262714;22;20015;-80
2022/09/17 14:13:20;;;;;;;12.05;1.98;;;15.20;99.90;;;;;;6261553;22;20015;-86
2022/09/17 14:16:37;;;;;;;;;;;;;;;;;;;;;
2022/09/17 14:19:32;;;;;;;9.88;1.92;;;14.50;99.90;;;;;;6108395;23;20034;-86
2022/09/17 14:22:25;;;;;;;7.68;1.73;;;15.10;99.90;;;;;;6092031;23;20330;-85
2022/09/17 14:25:26;;;;;;;7.03;1.73;;;14.30;99.90;;;;;;6158910;23;20009;-87
2022/09/17 14:28:28;;;;;;;17.92;2.42;;;14.20;99.90;;;;;;6214712;22;20015;-90
2022/09/17 14:31:40;;;;;;;9.48;2.05;;;14.50;99.90;;;;;;6236414;22;20011;-83
2022/09/17 14:34:37;;;;;;;5.57;1.45;;;14.50;99.90;;;;;;6240118;22;20027;-87
2022/09/17 14:37:55;;;;;;;5.75;1.70;;;13.30;99.90;;;;;;6263720;22;20007;-85
2022/09/17 14:40:50;;;;;;;5.05;1.30;;;12.90;99.90;;;;;;6264690;22;20288;-86
2022/09/17 14:44:17;;;;;;;10.40;1.80;;;13.20;99.90;;;;;;6240181;22;20018;-85
2022/09/17 14:47:02;;;;;;;9.13;1.50;;;13.40;99.90;;;;;;6175187;23;20230;-88
2022/09/17 14:50:29;;;;;;;;;;;;;;;;;;;;;
2022/09/17 14:53:19;;;;;;;10.40;2.30;;;13.70;99.90;;;;;;6287311;22;20022;-86
2022/09/17 14:55:51;;;;;;;10.18;2.03;;;13.90;99.90;;;;;;6264878;22;20019;-87
2022/09/17 14:59:00;;;;;;;;;;;;;;;;;;;;;
2022/09/17 15:01:46;;;;;;;8.98;2.25;;;14.10;99.90;;;;;;6268849;22;20041;-86
2022/09/17 15:04:25;;;;;;;6.32;1.38;;;14.20;99.90;;;;;;6264721;22;20018;-85
2022/09/17 15:07:22;;;;;;;11.63;2.00;;;14.50;99.90;;;;;;6263463;22;20325;-86
2022/09/17 15:09:54;;;;;;;7.38;1.30;;;14.30;99.90;;;;;;6289532;22;20292;-85
2022/09/17 15:12:25;;;;;;;7.43;1.70;;;13.90;99.90;;;;;;6262365;22;20003;-86
2022/09/17 15:14:59;;;;;;;8.65;1.98;;;12.50;99.90;;;;;;6264740;22;20019;-84
2022/09/17 15:17:28;;;;;;;10.20;2.03;;;13.40;99.90;;;;;;6262968;22;20022;-87
2022/09/17 15:19:59;;;;;;;8.80;1.80;;;12.80;99.90;;;;;;6265609;22;20061;-83
2022/09/17 15:22:33;;;;;;;10.63;2.08;;;13.70;99.90;;;;;;6289178;22;20007;-88
2022/09/17 15:25:35;;;;;;;10.10;1.95;;;13.80;99.90;;;;;;6263267;22;20033;-84
2022/09/17 15:28:33;;;;;;;12.27;1.80;;;13.70;99.90;;;;;;6269566;22;20078;-82
2022/09/17 15:31:01;;;;;;;10.80;2.45;;;14.30;99.90;;;;;;6260696;22;20011;-84
2022/09/17 15:33:36;;;;;;;6.90;2.08;;;13.30;99.90;;;;;;6262475;22;20024;-84
2022/09/17 15:36:14;;;;;;;;;;;12.50;99.90;;;;;;6241819;22;20007;-83
2022/09/17 15:38:41;;;;;;;10.75;2.33;;;13.10;99.90;;;;;;6290165;22;19954;-82
2022/09/17 15:41:19;;;;;;;11.10;2.90;;;13.20;99.90;;;;;;6263664;22;20032;-82
2022/09/17 15:43:48;;;;;;;5.95;1.75;;;13.20;99.90;;;;;;6317357;22;20022;-81
2022/09/17 15:46:30;;;;;;;7.10;1.50;;;13.30;99.90;;;;;;6239642;22;20014;-83
2022/09/17 15:49:38;;;;;;;11.27;1.70;;;13.40;99.90;;;;;;6265684;22;20053;-86
2022/09/17 15:52:31;;;;;;;8.52;1.60;;;13.30;99.90;;;;;;6263661;22;20011;-81
2022/09/17 15:54:59;;;;;;;10.27;2.03;;;13.00;99.90;;;;;;6264619;22;20053;-84
2022/09/17 15:57:31;;;;;;;7.93;1.38;;;13.30;99.90;;;;;;6264512;22;20041;-83
2022/09/17 16:00:14;;;;;;;6.47;1.58;;;13.20;99.90;;;;;;6264907;22;20018;-85
2022/09/17 16:02:42;;;;;;;8.43;1.20;;;12.20;99.90;;;;;;6263979;22;20011;-83
2022/09/17 16:05:23;;;;;;;5.80;1.08;;;12.80;99.90;;;;;;6265245;22;20060;-88
2022/09/17 16:07:52;;;;;;;7.20;1.35;;;13.10;99.90;;;;;;6266128;22;20183;-85
2022/09/17 16:10:18;;;;;;;7.45;1.65;;;12.30;99.90;;;;;;6265339;22;20240;-89
2022/09/17 16:12:48;;;;;;;4.85;1.42;;;11.70;99.90;;;;;;6265180;22;20343;-85
2022/09/17 16:15:16;;;;;;;4.05;1.13;;;12.40;99.90;;;;;;6240427;22;20007;-85
2022/09/17 16:17:47;;;;;;;5.53;1.35;;;12.40;99.90;;;;;;6240533;22;20052;-89
2022/09/17 16:20:29;;;;;;;6.43;1.25;;;12.50;99.90;;;;;;6264946;22;20209;-82
2022/09/17 16:22:56;;;;;;;9.65;1.90;;;12.60;99.90;;;;;;6265707;22;20018;-87
2022/09/17 16:25:26;;;;;;;6.80;2.22;;;12.30;99.90;;;;;;6265084;22;20015;-83
2022/09/17 16:27:59;;;;;;;6.95;2.03;;;12.70;99.90;;;;;;6290649;22;20026;-85
2022/09/17 16:30:26;;;;;;;16.08;2.05;;;12.60;99.90;;;;;;6263553;22;20364;-87
2022/09/17 16:32:53;;;;;;;9.98;1.67;;;11.50;99.90;;;;;;6264635;22;20042;-85
2022/09/17 16:35:26;;;;;;;4.15;1.30;;;12.60;99.90;;;;;;6265483;22;20300;-86
2022/09/17 16:37:55;;;;;;;3.38;1.63;;;12.50;99.90;;;;;;6265521;22;20035;-86
2022/09/17 16:40:22;;;;;;;6.45;1.45;;;11.50;99.90;;;;;;6265183;22;20024;-85
2022/09/17 16:42:48;;;;;;;7.15;1.38;;;12.60;99.90;;;;;;6264896;22;20071;-83
2022/09/17 16:45:17;;;;;;;9.05;1.52;;;12.60;99.90;;;;;;6263984;22;20011;-82
2022/09/17 16:47:43;;;;;;;6.30;1.42;;;12.60;99.90;;;;;;6289887;22;20048;-84
2022/09/17 16:50:12;;;;;;;7.10;1.85;;;12.60;99.90;;;;;;6264418;22;20249;-82
2022/09/17 16:52:41;;;;;;;7.25;1.40;;;12.50;99.90;;;;;;6264084;22;20011;-85